Time;durP1;ratioP1;P1;durP2;ratioP2;P2;SDS_P1;SDS_P2;PMS_P1;PMS_P2;Temp;Humidity;BMP_temperature;BMP_pressure;BME280_temperature;BME280_humidity;BME280_pressure;Samples;Min_cycle;Max_cycle;Signal;HPM_P1;HPM_P2
2020/12/27 00:00:41;;;;;;;7.80;4.47;;;-4.20;99.90;;;;;;5032323;28;20089;-87
2020/12/27 00:03:07;;;;;;;5.70;3.77;;;-4.20;99.90;;;;;;5033144;28;20033;-86
2020/12/27 00:05:33;;;;;;;6.10;4.00;;;-4.20;99.90;;;;;;5033759;28;20037;-86
2020/12/27 00:07:59;;;;;;;8.30;4.23;;;-4.20;99.90;;;;;;5034097;28;20468;-86
2020/12/27 00:10:25;;;;;;;5.67;3.70;;;-4.20;99.90;;;;;;5033877;28;20082;-87
2020/12/27 00:12:51;;;;;;;5.50;3.50;;;-4.20;99.90;;;;;;5034268;28;20406;-86
2020/12/27 00:15:16;;;;;;;5.03;3.20;;;-4.20;99.90;;;;;;5033822;28;20348;-86
2020/12/27 00:17:43;;;;;;;6.30;3.60;;;-4.20;99.90;;;;;;5034647;28;20033;-93
2020/12/27 00:20:08;;;;;;;5.23;3.70;;;-4.20;99.90;;;;;;5035339;28;20107;-93
2020/12/27 00:22:34;;;;;;;4.47;2.97;;;-4.20;99.90;;;;;;5035265;28;20021;-93
2020/12/27 00:25:00;;;;;;;5.33;3.40;;;-4.20;99.90;;;;;;5023465;28;20022;-92
2020/12/27 00:27:25;;;;;;;3.97;2.70;;;-4.20;99.90;;;;;;5035732;28;20021;-93
2020/12/27 00:29:51;;;;;;;5.57;3.90;;;-4.20;99.90;;;;;;5017575;28;20076;-92
2020/12/27 00:32:16;;;;;;;7.00;3.67;;;-4.20;99.90;;;;;;5035012;28;20028;-93
2020/12/27 00:34:42;;;;;;;4.70;3.20;;;-4.10;99.90;;;;;;5003232;28;20021;-93
2020/12/27 00:37:07;;;;;;;5.90;3.23;;;-4.20;99.90;;;;;;5034833;28;20113;-92
2020/12/27 00:39:33;;;;;;;9.93;3.67;;;-4.20;99.90;;;;;;5031737;28;20022;-93
2020/12/27 00:41:59;;;;;;;5.00;3.30;;;-4.20;99.90;;;;;;5012192;28;20033;-92
2020/12/27 00:44:25;;;;;;;7.20;3.40;;;-4.20;99.90;;;;;;5034508;28;20053;-92
2020/12/27 00:46:51;;;;;;;5.77;3.20;;;-4.20;99.90;;;;;;5016801;28;20040;-92
2020/12/27 00:49:17;;;;;;;5.80;3.20;;;-4.30;99.90;;;;;;5016636;28;20034;-92
2020/12/27 00:51:43;;;;;;;5.90;3.53;;;-4.30;99.90;;;;;;5030501;28;20707;-92
2020/12/27 00:54:09;;;;;;;5.40;3.23;;;-4.30;99.90;;;;;;5034508;28;20029;-92
2020/12/27 00:56:34;;;;;;;7.17;3.00;;;-4.30;99.90;;;;;;5016657;28;20113;-93
2020/12/27 00:59:00;;;;;;;6.63;3.03;;;-4.30;99.90;;;;;;5034429;28;20022;-92
2020/12/27 01:01:26;;;;;;;3.67;2.47;;;-4.30;99.90;;;;;;5028047;28;20075;-92
2020/12/27 01:03:51;;;;;;;5.77;3.47;;;-4.30;99.90;;;;;;5020279;28;20029;-92
2020/12/27 01:06:28;;;;;;;4.97;3.03;;;-4.30;99.90;;;;;;5023246;28;20418;-92
2020/12/27 01:08:54;;;;;;;6.00;3.13;;;-4.30;99.90;;;;;;5018793;28;20041;-93
2020/12/27 01:11:20;;;;;;;6.87;4.00;;;-4.40;99.90;;;;;;5023693;28;20057;-93
2020/12/27 01:13:46;;;;;;;5.93;3.93;;;-4.40;99.90;;;;;;5042686;28;20060;-93
2020/12/27 01:16:12;;;;;;;4.97;3.47;;;-4.50;99.90;;;;;;5037127;28;20022;-93
2020/12/27 01:18:48;;;;;;;6.57;4.23;;;-4.60;99.90;;;;;;5041919;28;20022;-93
2020/12/27 01:21:28;;;;;;;7.53;4.10;;;-4.60;99.90;;;;;;5019114;28;20374;-93
2020/12/27 01:23:54;;;;;;;6.57;3.90;;;-4.60;99.90;;;;;;5013907;28;20029;-93
2020/12/27 01:26:30;;;;;;;7.57;4.23;;;-4.70;99.90;;;;;;5032404;28;20056;-93
2020/12/27 01:28:56;;;;;;;8.97;5.00;;;-4.70;99.90;;;;;;5014220;28;20025;-92
2020/12/27 01:31:23;;;;;;;8.30;4.23;;;-4.70;99.90;;;;;;5032090;28;20022;-93
2020/12/27 01:33:49;;;;;;;7.83;4.43;;;-4.70;99.90;;;;;;5014570;28;20029;-84
2020/12/27 01:36:22;;;;;;;5.97;4.00;;;-4.80;99.90;;;;;;5032306;28;20033;-84
2020/12/27 01:38:48;;;;;;;9.07;4.90;;;-4.80;99.90;;;;;;5032113;28;20675;-84
2020/12/27 01:41:13;;;;;;;5.50;3.50;;;-4.80;99.90;;;;;;5032461;28;20029;-84
2020/12/27 01:43:39;;;;;;;6.80;3.63;;;-4.80;99.90;;;;;;5032182;28;20375;-85
2020/12/27 01:46:04;;;;;;;6.13;3.87;;;-4.90;99.90;;;;;;5032476;28;20470;-85
2020/12/27 01:48:30;;;;;;;7.33;3.53;;;-4.80;99.90;;;;;;5032280;28;20032;-84
2020/12/27 01:50:57;;;;;;;6.67;3.00;;;-4.80;99.90;;;;;;5014552;28;20072;-85
2020/12/27 01:53:22;;;;;;;6.20;3.40;;;-4.90;99.90;;;;;;5031773;28;20033;-84
2020/12/27 01:55:48;;;;;;;5.83;3.00;;;-4.90;99.90;;;;;;5031939;28;20095;-85
2020/12/27 01:58:20;;;;;;;7.00;3.43;;;-4.90;99.90;;;;;;5032117;28;20212;-84
2020/12/27 02:00:47;;;;;;;4.50;2.93;;;-4.90;99.90;;;;;;5032021;28;20041;-85
2020/12/27 02:03:13;;;;;;;5.17;3.17;;;-4.90;99.90;;;;;;5031714;28;20068;-84
2020/12/27 02:05:43;;;;;;;6.07;3.10;;;-4.90;99.90;;;;;;5031825;28;20038;-84
2020/12/27 02:08:10;;;;;;;5.60;2.70;;;-4.90;99.90;;;;;;5032263;28;20018;-84
2020/12/27 02:10:37;;;;;;;5.97;3.17;;;-4.90;99.90;;;;;;5031494;28;20370;-86
2020/12/27 02:13:03;;;;;;;5.80;2.67;;;-4.90;99.90;;;;;;5031620;28;20017;-86
2020/12/27 02:15:29;;;;;;;5.53;3.20;;;-4.90;99.90;;;;;;5031663;28;20486;-87
2020/12/27 02:17:54;;;;;;;5.07;3.10;;;-4.90;99.90;;;;;;5032102;28;20013;-87
2020/12/27 02:20:21;;;;;;;5.03;2.97;;;-4.90;99.90;;;;;;5031540;28;20034;-87
2020/12/27 02:22:50;;;;;;;4.93;2.90;;;-4.80;99.90;;;;;;5031580;28;20018;-86
2020/12/27 02:25:16;;;;;;;4.67;3.20;;;-4.80;99.90;;;;;;5031474;28;20052;-86
2020/12/27 02:27:41;;;;;;;4.73;2.70;;;-4.70;99.90;;;;;;5031620;28;20033;-87
2020/12/27 02:30:08;;;;;;;4.27;2.60;;;-4.70;99.90;;;;;;5031429;28;20018;-86
2020/12/27 02:32:33;;;;;;;4.73;3.20;;;-4.70;99.90;;;;;;5011755;28;20025;-86
2020/12/27 02:34:59;;;;;;;4.53;2.73;;;-4.70;99.90;;;;;;5031991;28;20454;-86
2020/12/27 02:37:25;;;;;;;3.33;2.50;;;-4.60;99.90;;;;;;5032537;28;20026;-86
2020/12/27 02:39:50;;;;;;;4.83;2.77;;;-4.70;99.90;;;;;;5049399;28;20059;-86
2020/12/27 02:42:16;;;;;;;5.80;2.70;;;-4.70;99.90;;;;;;5054459;28;20017;-86
2020/12/27 02:45:09;;;;;;;5.53;3.00;;;-4.70;99.90;;;;;;5038739;28;20481;-87
2020/12/27 02:47:28;;;;;;;5.80;2.70;;;-4.70;99.90;;;;;;5033952;28;20044;-86
2020/12/27 02:49:54;;;;;;;6.20;3.17;;;-4.70;99.90;;;;;;5034538;28;20021;-86
2020/12/27 02:52:20;;;;;;;4.23;2.87;;;-4.70;99.90;;;;;;5032270;28;20049;-81
2020/12/27 02:54:45;;;;;;;4.27;2.60;;;-4.70;99.90;;;;;;5031988;28;20041;-81
2020/12/27 02:57:11;;;;;;;4.30;2.80;;;-4.80;99.90;;;;;;5032221;28;20032;-81
2020/12/27 02:59:37;;;;;;;5.03;3.20;;;-4.80;99.90;;;;;;5032030;28;20037;-82
2020/12/27 03:02:02;;;;;;;3.77;2.87;;;-4.80;99.90;;;;;;5008261;28;20036;-81
2020/12/27 03:04:28;;;;;;;5.53;3.23;;;-4.90;99.90;;;;;;5012598;28;20030;-81
2020/12/27 03:06:53;;;;;;;5.30;2.97;;;-4.90;99.90;;;;;;5016140;28;20037;-81
2020/12/27 03:09:19;;;;;;;5.13;3.23;;;-4.90;99.90;;;;;;5032087;28;20088;-81
2020/12/27 03:11:44;;;;;;;4.87;2.77;;;-4.90;99.90;;;;;;5014166;28;20053;-81
2020/12/27 03:14:11;;;;;;;5.60;3.00;;;-5.00;99.90;;;;;;5032005;28;20057;-81
2020/12/27 03:16:36;;;;;;;4.20;2.77;;;-5.00;99.90;;;;;;5022019;28;20033;-81
2020/12/27 03:19:02;;;;;;;5.17;2.80;;;-5.00;99.90;;;;;;5027901;28;20033;-81
2020/12/27 03:21:28;;;;;;;5.57;3.20;;;-5.00;99.90;;;;;;5032320;28;20044;-81
2020/12/27 03:23:53;;;;;;;5.43;2.63;;;-5.00;99.90;;;;;;5031959;28;20026;-81
2020/12/27 03:26:19;;;;;;;4.47;3.10;;;-5.00;99.90;;;;;;5032035;28;20378;-81
2020/12/27 03:28:44;;;;;;;6.67;3.40;;;-5.00;99.90;;;;;;5031810;28;20076;-81
2020/12/27 03:31:10;;;;;;;4.70;3.10;;;-5.00;99.90;;;;;;5001633;28;20033;-82
2020/12/27 03:33:35;;;;;;;6.00;2.93;;;-5.00;99.90;;;;;;5025609;28;20540;-81
2020/12/27 03:36:01;;;;;;;5.00;3.10;;;-5.00;99.90;;;;;;5035124;28;20029;-81
2020/12/27 03:38:27;;;;;;;4.70;3.17;;;-5.00;99.90;;;;;;5035554;28;20437;-81
2020/12/27 03:40:53;;;;;;;4.73;2.97;;;-5.00;99.90;;;;;;5035493;28;20104;-81
2020/12/27 03:43:18;;;;;;;6.33;2.90;;;-5.00;99.90;;;;;;5017506;28;20470;-81
2020/12/27 03:45:44;;;;;;;10.50;3.40;;;-5.00;99.90;;;;;;5034425;28;20356;-81
2020/12/27 03:48:09;;;;;;;7.30;3.17;;;-5.00;99.90;;;;;;5035502;28;20553;-81
2020/12/27 03:50:35;;;;;;;5.43;3.17;;;-5.00;99.90;;;;;;5034945;28;20033;-81
2020/12/27 03:53:00;;;;;;;5.83;3.03;;;-5.00;99.90;;;;;;5034162;28;20463;-81
2020/12/27 03:55:26;;;;;;;5.63;3.43;;;-5.10;99.90;;;;;;5034389;28;20065;-81
2020/12/27 03:57:51;;;;;;;5.43;2.70;;;-5.10;99.90;;;;;;5035484;28;20029;-81
2020/12/27 04:00:18;;;;;;;6.33;3.60;;;-5.10;99.90;;;;;;5034817;28;20021;-81
2020/12/27 04:02:43;;;;;;;4.37;3.10;;;-5.10;99.90;;;;;;5035051;28;20025;-81
2020/12/27 04:05:09;;;;;;;4.83;3.27;;;-5.10;99.90;;;;;;5014818;28;20550;-81
2020/12/27 04:07:36;;;;;;;4.47;3.07;;;-5.10;99.90;;;;;;5035095;28;20021;-81
2020/12/27 04:10:03;;;;;;;4.53;2.90;;;-5.10;99.90;;;;;;5017071;28;20026;-81
2020/12/27 04:12:28;;;;;;;5.10;3.07;;;-5.10;99.90;;;;;;5034848;28;20083;-82
2020/12/27 04:14:54;;;;;;;5.23;3.33;;;-5.10;99.90;;;;;;5035266;28;20409;-81
2020/12/27 04:17:19;;;;;;;4.17;2.93;;;-5.10;99.90;;;;;;5034741;28;20249;-81
2020/12/27 04:19:45;;;;;;;4.63;2.87;;;-5.10;99.90;;;;;;5034766;28;20100;-81
2020/12/27 04:22:10;;;;;;;4.13;3.00;;;-5.10;99.90;;;;;;5027934;28;20033;-81
2020/12/27 04:24:36;;;;;;;5.13;3.30;;;-5.10;99.90;;;;;;5034427;28;20486;-81
2020/12/27 04:27:01;;;;;;;4.60;3.13;;;-5.10;99.90;;;;;;5034755;28;20103;-81
2020/12/27 04:29:27;;;;;;;6.10;2.97;;;-5.10;99.90;;;;;;5034477;28;20484;-81
2020/12/27 04:31:53;;;;;;;6.40;3.43;;;-5.10;99.90;;;;;;5034377;28;20068;-81
2020/12/27 04:34:19;;;;;;;5.00;3.23;;;-5.10;99.90;;;;;;5034530;28;20040;-81
2020/12/27 04:36:45;;;;;;;4.37;2.87;;;-5.00;99.90;;;;;;5034467;28;20112;-81
2020/12/27 04:39:11;;;;;;;4.60;3.07;;;-5.00;99.90;;;;;;5034160;28;20105;-81
2020/12/27 04:41:37;;;;;;;5.47;3.40;;;-5.00;99.90;;;;;;5034309;28;20097;-81
2020/12/27 04:44:04;;;;;;;5.70;3.43;;;-5.00;99.90;;;;;;5033018;28;20378;-81
2020/12/27 04:46:30;;;;;;;5.40;3.40;;;-4.90;99.90;;;;;;5016179;28;20060;-81
2020/12/27 04:48:57;;;;;;;5.57;3.03;;;-4.90;99.90;;;;;;5034150;28;20028;-81
2020/12/27 04:51:25;;;;;;;7.47;3.07;;;-4.90;99.90;;;;;;5033969;28;20477;-81
2020/12/27 04:53:51;;;;;;;5.83;3.17;;;-4.80;99.90;;;;;;5017421;28;20040;-81
2020/12/27 04:56:19;;;;;;;4.77;2.90;;;-4.90;99.90;;;;;;5034143;28;20041;-81
2020/12/27 04:58:45;;;;;;;4.50;2.87;;;-4.90;99.90;;;;;;5034221;28;20029;-81
2020/12/27 05:01:11;;;;;;;4.27;2.63;;;-4.90;99.90;;;;;;5015842;28;20030;-81
2020/12/27 05:03:36;;;;;;;6.50;4.00;;;-4.80;99.90;;;;;;5033621;28;20028;-81
2020/12/27 05:06:02;;;;;;;4.23;2.70;;;-4.80;99.90;;;;;;5033646;28;20473;-81
2020/12/27 05:08:27;;;;;;;5.47;2.73;;;-4.80;99.90;;;;;;5019649;28;20022;-81
2020/12/27 05:10:53;;;;;;;4.73;2.90;;;-4.80;99.90;;;;;;5032444;28;20018;-81
2020/12/27 05:13:19;;;;;;;4.97;3.13;;;-4.80;99.90;;;;;;5032608;28;20021;-81
2020/12/27 05:15:45;;;;;;;6.03;2.87;;;-4.90;99.90;;;;;;5032684;28;20381;-81
2020/12/27 05:18:12;;;;;;;4.03;2.90;;;-4.90;99.90;;;;;;5033418;28;20056;-82
2020/12/27 05:20:43;;;;;;;5.20;3.13;;;-4.90;99.90;;;;;;5033371;28;20045;-81
2020/12/27 05:23:09;;;;;;;5.03;3.23;;;-4.90;99.90;;;;;;5033140;28;20025;-81
2020/12/27 05:25:40;;;;;;;10.77;5.37;;;-4.90;99.90;;;;;;5033033;28;20025;-82
2020/12/27 05:28:08;;;;;;;8.33;4.50;;;-5.00;99.90;;;;;;5033218;28;20024;-81
2020/12/27 05:30:34;;;;;;;7.77;4.20;;;-5.00;99.90;;;;;;5015611;28;20057;-81
2020/12/27 05:33:00;;;;;;;9.37;4.90;;;-5.00;99.90;;;;;;5033122;28;20479;-81
2020/12/27 05:35:26;;;;;;;9.37;5.10;;;-5.00;99.90;;;;;;5032559;28;20043;-81
2020/12/27 05:37:52;;;;;;;10.47;5.30;;;-5.10;99.90;;;;;;5012000;28;20022;-81
2020/12/27 05:40:19;;;;;;;12.90;6.17;;;-5.10;99.90;;;;;;5025646;28;20445;-81
2020/12/27 05:42:46;;;;;;;6.87;4.40;;;-5.10;99.90;;;;;;5032620;28;20379;-82
2020/12/27 05:45:19;;;;;;;7.43;4.00;;;-5.10;99.90;;;;;;5032751;28;20037;-81
2020/12/27 05:47:46;;;;;;;5.47;3.47;;;-5.10;99.90;;;;;;5032279;28;20021;-81
2020/12/27 05:50:14;;;;;;;4.87;2.80;;;-5.20;99.90;;;;;;5032713;28;20025;-81
2020/12/27 05:52:47;;;;;;;5.90;2.90;;;-5.20;99.90;;;;;;5032640;28;20022;-81
2020/12/27 05:55:17;;;;;;;3.77;2.77;;;-5.20;99.90;;;;;;5031874;28;20498;-81
2020/12/27 05:57:42;;;;;;;5.77;2.60;;;-5.20;99.90;;;;;;5023711;28;20028;-81
2020/12/27 06:00:10;;;;;;;4.03;2.83;;;-5.20;99.90;;;;;;5033307;28;20017;-93
2020/12/27 06:02:40;;;;;;;4.63;2.80;;;-5.20;99.90;;;;;;5016033;28;20025;-94
2020/12/27 06:05:14;;;;;;;3.80;2.60;;;-5.20;99.90;;;;;;5033038;28;20104;-94
2020/12/27 06:07:45;;;;;;;4.47;2.33;;;-5.30;99.90;;;;;;5033568;28;20025;-94
2020/12/27 06:10:21;;;;;;;4.87;2.87;;;-5.30;99.90;;;;;;5001907;28;20103;-94
2020/12/27 06:13:34;;;;;;;3.97;2.50;;;-5.30;99.90;;;;;;5033338;28;20033;-94
2020/12/27 06:16:00;;;;;;;4.40;2.60;;;-5.30;99.90;;;;;;5029735;28;20036;-86
2020/12/27 06:18:28;;;;;;;3.63;2.20;;;-5.30;99.90;;;;;;5031280;28;20025;-86
2020/12/27 06:21:07;;;;;;;3.90;2.47;;;-5.30;99.90;;;;;;5028799;28;20056;-85
2020/12/27 06:23:33;;;;;;;4.13;2.47;;;-5.30;99.90;;;;;;5020244;28;20037;-85
2020/12/27 06:26:02;;;;;;;3.60;2.40;;;-5.30;99.90;;;;;;5025560;28;20090;-86
2020/12/27 06:28:32;;;;;;;4.03;2.47;;;-5.30;99.90;;;;;;5026171;28;20445;-84
2020/12/27 06:31:04;;;;;;;5.17;2.57;;;-5.30;99.90;;;;;;5023920;28;20041;-85
2020/12/27 06:33:36;;;;;;;4.40;2.50;;;-5.30;99.90;;;;;;5026782;28;20018;-86
2020/12/27 06:36:02;;;;;;;3.37;2.30;;;-5.30;99.90;;;;;;5012141;28;20036;-85
2020/12/27 06:38:31;;;;;;;3.57;2.67;;;-5.30;99.90;;;;;;5024786;28;20025;-86
2020/12/27 06:41:04;;;;;;;5.17;3.17;;;-5.30;99.90;;;;;;5023423;28;20462;-86
2020/12/27 06:43:40;;;;;;;5.10;4.00;;;-5.30;99.90;;;;;;5019206;28;20548;-83
2020/12/27 06:46:45;;;;;;;4.97;3.50;;;-5.40;99.90;;;;;;5020825;28;20036;-84
2020/12/27 06:49:14;;;;;;;4.10;2.67;;;-5.30;99.90;;;;;;5019940;28;20030;-84
2020/12/27 06:51:44;;;;;;;4.17;2.33;;;-5.40;99.90;;;;;;5023429;28;20030;-84
2020/12/27 06:54:12;;;;;;;3.97;2.33;;;-5.40;99.90;;;;;;5025527;28;20476;-86
2020/12/27 06:56:42;;;;;;;4.27;2.17;;;-5.40;99.90;;;;;;5006039;28;20025;-86
2020/12/27 06:59:08;;;;;;;3.90;2.10;;;-5.40;99.90;;;;;;5023185;28;20013;-86
2020/12/27 07:01:34;;;;;;;3.83;2.60;;;-5.40;99.90;;;;;;5010436;28;20036;-84
2020/12/27 07:04:15;;;;;;;4.70;2.00;;;-5.40;99.90;;;;;;5013148;28;20085;-85
2020/12/27 07:06:42;;;;;;;2.80;2.07;;;-5.40;99.90;;;;;;5014323;28;20025;-84
2020/12/27 07:09:08;;;;;;;3.20;2.37;;;-5.40;99.90;;;;;;5033717;28;20021;-85
2020/12/27 07:11:34;;;;;;;3.50;2.20;;;-5.40;99.90;;;;;;5034691;28;20059;-85
2020/12/27 07:14:00;;;;;;;3.50;2.20;;;-5.40;99.90;;;;;;5034501;28;20108;-85
2020/12/27 07:16:48;;;;;;;3.43;2.50;;;-5.30;99.90;;;;;;5024198;28;20101;-84
2020/12/27 07:19:15;;;;;;;3.67;2.20;;;-5.30;99.90;;;;;;5029930;28;20463;-85
2020/12/27 07:21:45;;;;;;;5.53;2.50;;;-5.30;99.90;;;;;;5034643;28;20049;-85
2020/12/27 07:24:11;;;;;;;4.40;2.50;;;-5.30;99.90;;;;;;5028523;28;20344;-85
2020/12/27 07:26:43;;;;;;;3.13;2.10;;;-5.30;99.90;;;;;;5034762;28;20013;-85
2020/12/27 07:29:12;;;;;;;3.10;1.97;;;-5.30;99.90;;;;;;5034599;28;20052;-85
2020/12/27 07:31:39;;;;;;;2.97;2.30;;;-5.30;99.90;;;;;;5035995;28;20447;-85
2020/12/27 07:34:06;;;;;;;3.10;2.30;;;-5.30;99.90;;;;;;5016601;28;20108;-85
2020/12/27 07:36:33;;;;;;;5.17;3.00;;;-5.20;99.90;;;;;;5029496;28;20113;-85
2020/12/27 07:39:01;;;;;;;6.07;3.40;;;-5.20;99.90;;;;;;5034189;28;20553;-85
2020/12/27 07:41:36;;;;;;;5.23;3.13;;;-5.20;99.90;;;;;;5016840;28;20022;-85
2020/12/27 07:44:04;;;;;;;5.13;2.87;;;-5.10;99.90;;;;;;5033597;28;20026;-83
2020/12/27 07:46:30;;;;;;;4.07;2.93;;;-5.10;99.90;;;;;;5053685;23;20064;-84
2020/12/27 07:48:56;;;;;;;4.30;3.10;;;-5.00;99.90;;;;;;5009725;28;20018;-85
2020/12/27 07:51:23;;;;;;;5.23;3.80;;;-5.00;99.90;;;;;;5030191;28;20021;-85
2020/12/27 07:53:51;;;;;;;4.33;3.03;;;-4.90;99.90;;;;;;5034353;28;20032;-85
2020/12/27 07:56:21;;;;;;;3.90;2.40;;;-4.90;99.90;;;;;;5033893;28;20025;-85
2020/12/27 07:58:58;;;;;;;5.00;2.67;;;-4.80;99.90;;;;;;5034635;28;20030;-84
2020/12/27 08:01:25;;;;;;;4.30;3.00;;;-4.70;99.90;;;;;;5035216;28;20025;-84
2020/12/27 08:03:54;;;;;;;5.17;3.77;;;-4.70;99.90;;;;;;5032953;28;20394;-85
2020/12/27 08:06:21;;;;;;;5.43;3.30;;;-4.60;99.90;;;;;;5029066;28;20455;-85
2020/12/27 08:08:47;;;;;;;4.87;3.50;;;-4.50;99.90;;;;;;5035303;28;20443;-85
2020/12/27 08:11:21;;;;;;;5.00;3.20;;;-4.40;99.90;;;;;;5016742;28;20021;-82
2020/12/27 08:13:55;;;;;;;6.53;3.73;;;-4.40;99.90;;;;;;5032857;28;20021;-88
2020/12/27 08:16:21;;;;;;;5.00;3.43;;;-4.20;99.90;;;;;;5029556;28;20120;-89
2020/12/27 08:18:47;;;;;;;5.47;3.63;;;-4.10;99.90;;;;;;5033125;28;20112;-86
2020/12/27 08:21:18;;;;;;;5.10;3.23;;;-4.00;99.90;;;;;;5034185;28;20029;-81
2020/12/27 08:23:57;;;;;;;4.63;3.30;;;-3.90;99.90;;;;;;5034635;28;20071;-89
2020/12/27 08:26:23;;;;;;;5.90;3.53;;;-3.90;99.90;;;;;;5036346;28;20040;-82
2020/12/27 08:28:49;;;;;;;5.37;3.53;;;-3.80;99.90;;;;;;5038020;28;20049;-86
2020/12/27 08:31:27;;;;;;;5.57;3.10;;;-3.70;99.90;;;;;;5033689;28;20053;-87
2020/12/27 08:34:07;;;;;;;4.83;3.50;;;-3.60;99.90;;;;;;5032190;28;20469;-83
2020/12/27 08:36:33;;;;;;;4.93;3.20;;;-3.50;99.90;;;;;;5016627;28;20393;-84
2020/12/27 08:39:03;;;;;;;6.67;4.10;;;-3.40;99.90;;;;;;5033461;28;20030;-86
2020/12/27 08:41:34;;;;;;;6.00;3.70;;;-3.40;99.90;;;;;;5034249;28;20025;-89
2020/12/27 08:44:33;;;;;;;6.30;3.03;;;-3.30;99.90;;;;;;5034688;28;20064;-93
2020/12/27 08:47:02;;;;;;;4.43;3.13;;;-3.10;99.90;;;;;;5017954;28;20060;-94
2020/12/27 08:50:01;;;;;;;4.13;2.83;;;-3.10;99.90;;;;;;5035724;28;20025;-93
2020/12/27 08:52:27;;;;;;;4.00;2.70;;;-3.00;99.90;;;;;;5023286;28;20076;-94
2020/12/27 08:54:58;;;;;;;4.27;2.50;;;-2.90;99.90;;;;;;5019176;28;20025;-93
2020/12/27 08:57:24;;;;;;;5.80;2.60;;;-2.80;99.90;;;;;;5020316;28;20025;-94
2020/12/27 09:00:05;;;;;;;5.13;2.77;;;-2.70;99.90;;;;;;5038046;28;20026;-94
2020/12/27 09:02:31;;;;;;;4.70;2.50;;;-2.70;99.90;;;;;;5020287;28;20022;-93
2020/12/27 09:05:15;;;;;;;4.57;2.90;;;-2.60;99.90;;;;;;5037888;28;20108;-95
2020/12/27 09:07:42;;;;;;;5.23;2.90;;;-2.50;99.90;;;;;;5038582;28;20017;-93
2020/12/27 09:10:18;;;;;;;3.77;2.70;;;-2.50;99.90;;;;;;5037826;28;20025;-94
2020/12/27 09:13:06;;;;;;;3.80;2.43;;;-2.40;99.90;;;;;;5019431;28;20028;-94
2020/12/27 09:15:46;;;;;;;5.10;2.80;;;-2.30;99.90;;;;;;5038607;28;20017;-95
2020/12/27 09:18:16;;;;;;;4.87;2.40;;;-2.20;99.90;;;;;;5021226;28;20071;-95
2020/12/27 09:20:44;;;;;;;3.07;2.20;;;-2.10;99.90;;;;;;5020762;28;20041;-94
2020/12/27 09:23:16;;;;;;;4.63;2.67;;;-2.10;99.90;;;;;;5038541;28;20017;-95
2020/12/27 09:25:43;;;;;;;3.67;2.50;;;-2.00;99.90;;;;;;5038011;28;20030;-94
2020/12/27 09:28:14;;;;;;;4.47;2.43;;;-2.00;99.90;;;;;;5037407;28;20021;-93
2020/12/27 09:30:40;;;;;;;4.33;2.73;;;-1.90;99.90;;;;;;5037719;28;20052;-95
2020/12/27 09:33:06;;;;;;;4.10;2.10;;;-2.00;99.90;;;;;;5039000;28;20121;-94
2020/12/27 09:35:31;;;;;;;5.60;2.60;;;-1.90;99.90;;;;;;5040175;28;20056;-93
2020/12/27 09:37:57;;;;;;;4.80;2.87;;;-1.80;99.90;;;;;;5038764;28;20425;-95
2020/12/27 09:40:23;;;;;;;4.93;3.10;;;-1.70;99.90;;;;;;5038783;28;20021;-94
2020/12/27 09:42:59;;;;;;;4.80;3.20;;;-1.70;99.90;;;;;;5039018;28;20040;-94
2020/12/27 09:45:25;;;;;;;4.90;3.13;;;-1.70;99.90;;;;;;5039630;28;20025;-93
2020/12/27 09:47:52;;;;;;;4.60;2.97;;;-1.80;99.90;;;;;;5039743;28;20104;-94
2020/12/27 09:50:28;;;;;;;4.77;2.83;;;-1.80;99.90;;;;;;5022038;28;20048;-93
2020/12/27 09:52:53;;;;;;;6.73;3.50;;;-1.70;99.90;;;;;;5021202;28;20026;-94
2020/12/27 09:55:20;;;;;;;9.57;3.57;;;-1.60;99.90;;;;;;5020357;28;20072;-94
2020/12/27 09:57:45;;;;;;;3.60;2.80;;;-1.50;99.90;;;;;;5037724;28;20061;-93
2020/12/27 10:00:11;;;;;;;4.07;2.73;;;-1.30;99.90;;;;;;5021496;28;20033;-93
2020/12/27 10:02:36;;;;;;;4.73;2.70;;;-1.30;99.90;;;;;;5021733;28;20080;-94
2020/12/27 10:05:02;;;;;;;4.30;2.73;;;-1.20;99.90;;;;;;5021172;28;20148;-95
2020/12/27 10:07:28;;;;;;;4.63;2.83;;;-1.20;99.90;;;;;;5039243;28;20028;-94
2020/12/27 10:09:53;;;;;;;10.37;5.73;;;-1.20;99.90;;;;;;5020834;28;20020;-94
2020/12/27 10:12:20;;;;;;;6.70;3.83;;;-1.10;99.90;;;;;;5039550;28;20024;-93
2020/12/27 10:14:45;;;;;;;4.70;3.30;;;-1.10;99.90;;;;;;5039454;28;20036;-94
2020/12/27 10:17:11;;;;;;;5.30;2.90;;;-1.00;99.90;;;;;;5021415;28;20021;-94
2020/12/27 10:19:37;;;;;;;5.20;3.47;;;-0.90;99.90;;;;;;5022156;28;20029;-95
2020/12/27 10:22:03;;;;;;;6.20;3.50;;;-0.80;99.90;;;;;;5040243;28;20033;-94
2020/12/27 10:24:32;;;;;;;4.23;2.70;;;-0.70;99.90;;;;;;5022658;28;20033;-94
2020/12/27 10:27:01;;;;;;;4.20;2.97;;;-0.70;99.90;;;;;;5023074;28;20026;-94
2020/12/27 10:29:27;;;;;;;18.07;5.50;;;-0.60;99.90;;;;;;5024156;28;20443;-94
2020/12/27 10:31:54;;;;;;;16.03;5.30;;;-0.50;99.90;;;;;;5023702;28;20021;-94
2020/12/27 10:34:21;;;;;;;7.60;3.67;;;-0.40;99.90;;;;;;5041142;28;20025;-93
2020/12/27 10:36:51;;;;;;;7.47;3.70;;;-0.30;99.90;;;;;;5041059;28;20037;-94
2020/12/27 10:39:17;;;;;;;7.40;2.90;;;-0.10;99.90;;;;;;5022396;28;20340;-94
2020/12/27 10:41:45;;;;;;;8.03;3.37;;;0.10;99.90;;;;;;5024380;28;20017;-94
2020/12/27 10:44:11;;;;;;;6.80;3.60;;;0.20;99.90;;;;;;5027367;28;20022;-93
2020/12/27 10:46:37;;;;;;;8.23;3.83;;;0.30;99.90;;;;;;5026913;28;20129;-94
2020/12/27 10:49:03;;;;;;;8.27;3.90;;;0.30;99.90;;;;;;5027215;28;20462;-92
2020/12/27 10:51:39;;;;;;;7.40;4.17;;;0.40;99.90;;;;;;5044079;28;20025;-93
2020/12/27 10:54:06;;;;;;;8.43;4.03;;;0.20;99.90;;;;;;5025244;28;20021;-93
2020/12/27 10:56:33;;;;;;;7.77;3.63;;;0.30;99.90;;;;;;5045530;28;20017;-93
2020/12/27 10:58:59;;;;;;;7.87;3.17;;;0.40;99.90;;;;;;5026516;28;20128;-93
2020/12/27 11:01:25;;;;;;;8.27;3.50;;;0.40;99.90;;;;;;5043364;28;20018;-94
2020/12/27 11:03:51;;;;;;;7.47;3.10;;;0.40;99.90;;;;;;5044166;28;20028;-93
2020/12/27 11:06:17;;;;;;;5.40;3.57;;;0.40;99.90;;;;;;5026304;28;20053;-93
2020/12/27 11:08:42;;;;;;;5.10;2.93;;;0.40;99.90;;;;;;5043380;28;20021;-94
2020/12/27 11:11:08;;;;;;;7.20;3.40;;;0.30;99.90;;;;;;5026148;28;20062;-94
2020/12/27 11:13:34;;;;;;;7.97;3.63;;;0.30;99.90;;;;;;5042757;28;20051;-93
2020/12/27 11:16:00;;;;;;;6.70;3.47;;;0.30;99.90;;;;;;5023292;28;20030;-94
2020/12/27 11:18:25;;;;;;;6.10;2.97;;;0.30;99.90;;;;;;5040303;28;20025;-94
2020/12/27 11:20:51;;;;;;;5.47;2.73;;;0.40;99.90;;;;;;5020412;28;20032;-93
2020/12/27 11:23:16;;;;;;;7.43;3.40;;;0.30;99.90;;;;;;5021026;28;20048;-91
2020/12/27 11:25:42;;;;;;;8.73;3.10;;;0.30;99.90;;;;;;5020363;28;20531;-93
2020/12/27 11:28:07;;;;;;;3.80;2.73;;;0.40;99.90;;;;;;5019245;28;20028;-93
2020/12/27 11:30:33;;;;;;;8.10;2.57;;;0.50;99.90;;;;;;5018970;28;20386;-92
2020/12/27 11:32:59;;;;;;;6.63;3.00;;;0.50;99.90;;;;;;5019500;28;20454;-94
2020/12/27 11:35:24;;;;;;;4.67;2.80;;;0.50;99.90;;;;;;5036614;28;20029;-94
2020/12/27 11:37:51;;;;;;;5.33;3.00;;;0.60;99.90;;;;;;5036872;28;20033;-93
2020/12/27 11:40:17;;;;;;;6.97;3.50;;;0.70;99.90;;;;;;5036688;28;20121;-92
2020/12/27 11:42:42;;;;;;;11.97;4.90;;;0.70;99.90;;;;;;5045531;28;20029;-92
2020/12/27 11:45:08;;;;;;;8.50;4.17;;;0.80;99.90;;;;;;5046784;28;20033;-93
2020/12/27 11:47:35;;;;;;;8.97;4.30;;;0.80;99.90;;;;;;5027422;28;20041;-93
2020/12/27 11:50:00;;;;;;;12.57;4.90;;;0.80;99.90;;;;;;5021512;28;20071;-93
2020/12/27 11:52:26;;;;;;;9.80;3.33;;;0.80;99.90;;;;;;5036490;28;20539;-93
2020/12/27 11:54:52;;;;;;;48.80;20.23;;;0.90;99.90;;;;;;5036108;28;20112;-92
2020/12/27 11:57:18;;;;;;;19.10;9.63;;;0.90;99.90;;;;;;5034735;28;20033;-94
2020/12/27 11:59:43;;;;;;;17.07;7.27;;;0.90;99.90;;;;;;5034486;28;20032;-93
2020/12/27 12:02:09;;;;;;;13.20;7.40;;;1.00;99.90;;;;;;5035909;28;20032;-92
2020/12/27 12:04:34;;;;;;;6.93;4.00;;;1.10;99.90;;;;;;5017862;28;20033;-92
2020/12/27 12:07:00;;;;;;;13.13;7.63;;;1.20;99.90;;;;;;5017798;28;20373;-92
2020/12/27 12:09:25;;;;;;;6.60;2.70;;;1.20;99.90;;;;;;5018304;28;20231;-92
2020/12/27 12:11:51;;;;;;;5.00;2.90;;;1.30;99.90;;;;;;5035499;28;20093;-87
2020/12/27 12:14:17;;;;;;;67.90;41.03;;;1.20;99.90;;;;;;5034946;28;20109;-85
2020/12/27 12:16:42;;;;;;;45.90;27.47;;;1.30;99.90;;;;;;5013440;28;20026;-83
2020/12/27 12:19:08;;;;;;;16.70;9.30;;;1.30;99.90;;;;;;5014824;28;20025;-87
2020/12/27 12:21:34;;;;;;;16.13;11.33;;;1.30;99.90;;;;;;5026671;28;20040;-86
2020/12/27 12:23:59;;;;;;;20.67;14.70;;;1.30;99.90;;;;;;5034686;28;20030;-85
2020/12/27 12:26:31;;;;;;;46.17;32.23;;;1.20;99.90;;;;;;5016773;28;20093;-94
2020/12/27 12:28:58;;;;;;;26.63;18.27;;;1.20;99.90;;;;;;5035457;28;20064;-94
2020/12/27 12:31:25;;;;;;;17.73;14.43;;;1.20;99.90;;;;;;5035990;28;20037;-94
2020/12/27 12:33:51;;;;;;;17.50;13.30;;;1.30;99.90;;;;;;5021108;28;20492;-94
2020/12/27 12:36:19;;;;;;;10.67;5.70;;;1.30;99.90;;;;;;5020691;28;20044;-94
2020/12/27 12:38:45;;;;;;;10.33;2.60;;;1.30;99.90;;;;;;5002975;28;20424;-81
2020/12/27 12:41:12;;;;;;;6.40;3.00;;;1.40;99.90;;;;;;5034169;28;20385;-86
2020/12/27 12:43:42;;;;;;;22.50;8.77;;;1.40;99.90;;;;;;5012423;28;20025;-84
2020/12/27 12:46:08;;;;;;;8.67;4.07;;;1.40;99.90;;;;;;5023985;28;20042;-85
2020/12/27 12:48:35;;;;;;;12.97;4.87;;;1.30;99.90;;;;;;5024522;28;20029;-83
2020/12/27 12:51:00;;;;;;;8.37;3.80;;;1.30;99.90;;;;;;5025580;28;20084;-84